createdAt,value
2024-03-09T00:00:02.592Z,1005.4
2024-03-09T00:05:02.906Z,1005.37
2024-03-09T00:10:02.689Z,1005.33
2024-03-09T00:15:03.360Z,1005.33
2024-03-09T00:20:02.579Z,1005.29
2024-03-09T00:25:02.908Z,1005.34
2024-03-09T00:30:03.092Z,1005.3
2024-03-09T00:35:02.610Z,1005.3
2024-03-09T00:40:02.946Z,1005.2
2024-03-09T00:45:02.286Z,1005.24
2024-03-09T00:50:02.499Z,1005.08
2024-03-09T00:55:02.739Z,1005.08
2024-03-09T01:00:02.821Z,1005.04
2024-03-09T01:05:02.461Z,1004.89
2024-03-09T01:10:02.774Z,1004.78
2024-03-09T01:15:03.112Z,1004.78
2024-03-09T01:20:02.444Z,1004.68
2024-03-09T01:25:02.898Z,1004.62
2024-03-09T01:30:03.309Z,1004.46
2024-03-09T01:35:02.693Z,1004.56
2024-03-09T01:40:03.144Z,1004.37
2024-03-09T01:45:02.293Z,1004.37
2024-03-09T01:50:02.777Z,1004.24
2024-03-09T01:55:03.065Z,1004.24
2024-03-09T02:00:02.409Z,1004.24
2024-03-09T02:05:02.566Z,1004.28
2024-03-09T02:10:03.048Z,1004.29
2024-03-09T02:15:02.355Z,1004.15
2024-03-09T02:20:02.758Z,1004.04
2024-03-09T02:25:03.283Z,1004.26
2024-03-09T02:30:02.653Z,1003.98
2024-03-09T02:35:03.287Z,1004.04
2024-03-09T02:40:02.684Z,1003.88
2024-03-09T02:45:02.916Z,1003.94
2024-03-09T02:50:03.258Z,1003.92
2024-03-09T02:55:02.576Z,1003.9
2024-03-09T03:00:02.813Z,1003.77
2024-03-09T03:05:03.151Z,1003.75
2024-03-09T03:10:02.481Z,1003.71
2024-03-09T03:15:02.973Z,1003.71
2024-03-09T03:20:02.411Z,1003.75
2024-03-09T03:25:02.937Z,1003.63
2024-03-09T03:30:02.401Z,1003.68
2024-03-09T03:35:02.858Z,1003.73
2024-03-09T03:40:03.142Z,1003.74
2024-03-09T03:45:02.548Z,1003.65
2024-03-09T03:50:02.842Z,1003.56
2024-03-09T03:55:03.117Z,1003.52
2024-03-09T04:00:02.332Z,1003.42
2024-03-09T04:05:02.655Z,1003.43
2024-03-09T04:10:02.857Z,1003.46
2024-03-09T04:15:03.166Z,1003.41
2024-03-09T04:20:02.314Z,1003.33
2024-03-09T04:25:07.269Z,1003.3
2024-03-09T04:30:02.457Z,1003.31
2024-03-09T04:35:02.822Z,1003.15
2024-03-09T04:40:02.245Z,1003.15
2024-03-09T04:45:02.568Z,1003.23
2024-03-09T04:50:02.929Z,1003.22
2024-03-09T04:55:02.210Z,1003.2
2024-03-09T05:00:02.487Z,1003.12
2024-03-09T05:05:02.765Z,1003.04
2024-03-09T05:10:03.113Z,1003.01
2024-03-09T05:15:02.399Z,1003.08
2024-03-09T05:20:02.724Z,1003.04
2024-03-09T05:25:03.062Z,1003.01
2024-03-09T05:30:02.289Z,1002.98
2024-03-09T05:35:02.494Z,1002.92
2024-03-09T05:40:02.789Z,1002.86
2024-03-09T05:45:03.021Z,1002.76
2024-03-09T05:50:02.514Z,1002.7
2024-03-09T05:55:02.979Z,1002.7
2024-03-09T06:00:02.278Z,1002.68
2024-03-09T06:05:02.722Z,1002.63
2024-03-09T06:10:03.051Z,1002.61
2024-03-09T06:15:02.347Z,1002.62
2024-03-09T06:20:02.651Z,1002.59
2024-03-09T06:25:02.945Z,1002.58
2024-03-09T06:30:02.247Z,1002.59
2024-03-09T06:35:02.621Z,1002.59
2024-03-09T06:40:03.020Z,1002.57
2024-03-09T06:45:02.327Z,1002.46
2024-03-09T06:50:02.697Z,1002.57
2024-03-09T06:55:03.098Z,1002.6
2024-03-09T07:00:02.331Z,1002.55
2024-03-09T07:05:02.580Z,1002.56
2024-03-09T07:10:02.901Z,1002.53
2024-03-09T07:15:03.331Z,1002.65
2024-03-09T07:20:02.680Z,1002.6
2024-03-09T07:25:03.223Z,1002.69
2024-03-09T07:30:02.500Z,1002.64
2024-03-09T07:35:02.846Z,1002.65
2024-03-09T07:40:03.158Z,1002.74
2024-03-09T07:45:02.490Z,1002.71
2024-03-09T07:50:02.871Z,1002.64
2024-03-09T07:55:03.229Z,1002.63
2024-03-09T08:00:07.626Z,1002.59
2024-03-09T08:05:03.693Z,1002.64
2024-03-09T08:10:03.168Z,1002.69
2024-03-09T08:15:02.670Z,1002.8
2024-03-09T08:20:03.240Z,1002.76
2024-03-09T08:25:03.014Z,1002.74
2024-03-09T08:30:02.309Z,1002.72
2024-03-09T08:35:02.646Z,1002.61
2024-03-09T08:40:02.934Z,1002.61
2024-03-09T08:45:02.686Z,1002.64
2024-03-09T08:50:02.962Z,1002.53
2024-03-09T08:55:02.279Z,1002.51
2024-03-09T09:00:02.956Z,1002.51
2024-03-09T09:05:02.330Z,1002.41
2024-03-09T09:10:02.714Z,1002.35
2024-03-09T09:15:03.659Z,1002.29
2024-03-09T09:20:04.644Z,1002.45
2024-03-09T09:25:03.059Z,1002.36
2024-03-09T09:30:02.350Z,1002.33
2024-03-09T09:35:02.588Z,1002.18
2024-03-09T09:40:03.128Z,1002.03
2024-03-09T09:45:02.503Z,1002.01
2024-03-09T09:50:02.885Z,1002.01
2024-03-09T09:55:02.141Z,1002.02
2024-03-09T10:00:02.390Z,1002.02
2024-03-09T10:05:02.749Z,1001.93
2024-03-09T10:10:02.603Z,1001.87
2024-03-09T10:15:03.196Z,1001.89
2024-03-09T10:20:02.626Z,1001.84
2024-03-09T10:25:02.833Z,1001.8
2024-03-09T10:30:03.072Z,1001.76
2024-03-09T10:35:02.379Z,1001.74
2024-03-09T10:40:02.760Z,1001.69
2024-03-09T10:45:02.966Z,1001.58
2024-03-09T10:50:02.184Z,1001.41
2024-03-09T10:55:02.688Z,1001.41
2024-03-09T11:00:02.952Z,1001.17
2024-03-09T11:05:02.418Z,1001.14
2024-03-09T11:10:02.699Z,1001.19
2024-03-09T11:15:03.074Z,1001.2
2024-03-09T11:20:02.579Z,1001.23
2024-03-09T11:25:02.918Z,1001.21
2024-03-09T11:30:03.237Z,1001.22
2024-03-09T11:35:12.653Z,1001.28
2024-03-09T11:40:03.027Z,1001.27
2024-03-09T11:45:02.126Z,1001.1
2024-03-09T11:50:02.472Z,1001.03
2024-03-09T11:55:02.645Z,1000.94
2024-03-09T12:00:02.916Z,1000.86
2024-03-09T12:05:02.241Z,1000.75
2024-03-09T12:10:02.619Z,1000.74
2024-03-09T12:15:02.904Z,1000.74
2024-03-09T12:20:03.222Z,1000.69
2024-03-09T12:25:02.473Z,1000.63
2024-03-09T12:30:02.651Z,1000.5
2024-03-09T12:35:02.956Z,1000.54
2024-03-09T12:40:12.261Z,1000.42
2024-03-09T12:45:02.555Z,1000.51
2024-03-09T12:50:02.955Z,1000.41
2024-03-09T12:55:02.289Z,1000.41
2024-03-09T13:00:02.560Z,1000.25
2024-03-09T13:05:02.846Z,1000.23
2024-03-09T13:10:05.498Z,1000.17
2024-03-09T13:15:03.335Z,1000.12
2024-03-09T13:20:02.624Z,1000.06
2024-03-09T13:25:02.928Z,1000.0
2024-03-09T13:30:03.171Z,999.89
2024-03-09T13:35:02.907Z,999.93
2024-03-09T13:40:02.351Z,999.93
2024-03-09T13:45:02.757Z,999.78
2024-03-09T13:50:03.332Z,999.83
2024-03-09T13:55:02.591Z,999.78
2024-03-09T14:00:02.938Z,999.66
2024-03-09T14:05:02.593Z,999.72
2024-03-09T14:10:02.946Z,999.62
2024-03-09T14:15:02.239Z,999.64
2024-03-09T14:20:02.930Z,999.66
2024-03-09T14:25:02.216Z,999.69
2024-03-09T14:30:02.703Z,999.57
2024-03-09T14:35:03.364Z,999.58
2024-03-09T14:40:02.692Z,999.58
2024-03-09T14:45:03.054Z,999.5
2024-03-09T14:50:02.530Z,999.45
2024-03-09T14:55:02.824Z,999.4
2024-03-09T15:00:03.340Z,999.33
2024-03-09T15:05:02.769Z,999.3
2024-03-09T15:10:03.117Z,999.29
2024-03-09T15:15:02.404Z,999.31
2024-03-09T15:20:02.738Z,999.2
2024-03-09T15:25:10.192Z,999.07
2024-03-09T15:30:02.636Z,999.04
2024-03-09T15:35:02.857Z,999.04
2024-03-09T15:40:02.200Z,999.04
2024-03-09T15:45:02.588Z,999.09
2024-03-09T15:50:02.818Z,998.99
2024-03-09T15:55:03.063Z,998.87
2024-03-09T16:00:02.417Z,998.88
2024-03-09T16:05:02.873Z,998.85
2024-03-09T16:10:03.203Z,998.78
2024-03-09T16:15:02.423Z,998.73
2024-03-09T16:20:02.730Z,998.65
2024-03-09T16:25:03.120Z,998.7
2024-03-09T16:30:02.508Z,998.63
2024-03-09T16:35:02.883Z,998.75
2024-03-09T16:40:02.262Z,998.72
2024-03-09T16:45:02.829Z,998.65
2024-03-09T16:50:03.080Z,998.75
2024-03-09T16:55:02.388Z,998.77
2024-03-09T17:00:02.617Z,998.77
2024-03-09T17:05:03.033Z,998.72
2024-03-09T17:10:02.335Z,998.86
2024-03-09T17:15:02.582Z,998.95
2024-03-09T17:20:02.947Z,998.95
2024-03-09T17:25:02.307Z,999.02
2024-03-09T17:30:02.564Z,999.09
2024-03-09T17:35:02.837Z,999.0
2024-03-09T17:40:03.108Z,999.03
2024-03-09T17:45:02.430Z,999.04
2024-03-09T17:50:02.651Z,999.05
2024-03-09T17:55:06.590Z,999.04
2024-03-09T18:00:02.787Z,999.15
2024-03-09T18:05:03.303Z,999.2
2024-03-09T18:10:02.614Z,999.18
2024-03-09T18:15:03.046Z,999.24
2024-03-09T18:20:02.443Z,999.21
2024-03-09T18:25:02.939Z,999.31
2024-03-09T18:30:02.249Z,999.22
2024-03-09T18:35:02.504Z,999.14
2024-03-09T18:40:02.977Z,999.14
2024-03-09T18:45:02.200Z,999.16
2024-03-09T18:50:02.780Z,999.15
2024-03-09T18:55:03.082Z,999.12
2024-03-09T19:00:05.386Z,999.12
2024-03-09T19:05:02.464Z,998.98
2024-03-09T19:10:02.837Z,998.95
2024-03-09T19:15:03.132Z,998.97
2024-03-09T19:20:02.381Z,998.97
2024-03-09T19:25:02.732Z,998.89
2024-03-09T19:30:03.141Z,998.89
2024-03-09T19:35:02.595Z,998.9
2024-03-09T19:40:02.754Z,998.88
2024-03-09T19:45:02.997Z,998.88
2024-03-09T19:50:05.699Z,998.87
2024-03-09T19:55:02.859Z,999.0
2024-03-09T20:00:03.115Z,999.0
2024-03-09T20:05:02.334Z,998.96
2024-03-09T20:10:02.572Z,998.96
2024-03-09T20:15:02.886Z,998.96
2024-03-09T20:20:02.221Z,998.96
2024-03-09T20:25:02.447Z,998.96
2024-03-09T20:30:02.588Z,998.96
2024-03-09T20:35:02.909Z,998.92
2024-03-09T20:40:02.217Z,998.86
2024-03-09T20:45:02.648Z,998.84
2024-03-09T20:50:02.979Z,998.91
2024-03-09T20:55:02.349Z,998.88
2024-03-09T21:00:02.681Z,998.93
2024-03-09T21:05:02.954Z,998.82
2024-03-09T21:10:02.361Z,998.92
2024-03-09T21:15:02.581Z,998.92
2024-03-09T21:20:02.922Z,998.78
2024-03-09T21:25:02.220Z,998.75
2024-03-09T21:30:02.494Z,998.81
2024-03-09T21:35:02.808Z,998.74
2024-03-09T21:40:03.126Z,998.69
2024-03-09T21:45:02.504Z,998.61
2024-03-09T21:50:03.004Z,998.54
2024-03-09T21:55:02.368Z,998.51
2024-03-09T22:00:02.710Z,998.49
2024-03-09T22:05:02.955Z,998.38
2024-03-09T22:10:02.238Z,998.37
2024-03-09T22:15:02.508Z,998.28
2024-03-09T22:20:02.884Z,998.3
2024-03-09T22:25:03.172Z,998.3
2024-03-09T22:30:09.326Z,998.24
2024-03-09T22:35:03.078Z,998.24
2024-03-09T22:40:02.588Z,998.26
2024-03-09T22:45:02.937Z,998.21
2024-03-09T22:50:02.367Z,998.17
2024-03-09T22:55:02.815Z,998.09
2024-03-09T23:00:03.146Z,998.12
2024-03-09T23:05:02.494Z,998.14
2024-03-09T23:10:02.950Z,998.02
2024-03-09T23:15:02.185Z,998.16
2024-03-09T23:20:03.119Z,998.17
2024-03-09T23:25:02.379Z,998.28
2024-03-09T23:30:02.612Z,998.22
2024-03-09T23:35:03.037Z,998.1
2024-03-09T23:40:02.375Z,998.08
2024-03-09T23:45:02.729Z,998.0
2024-03-09T23:50:03.049Z,998.03
2024-03-09T23:55:04.591Z,997.97
